Mesa.AZweather.com - Mesa, AZ
   Red Mountain Frwy and University Dr., El 1518 ft.
       --- Wednesday  Dec. 4, 2019 ---
 
 High Temperature ..  75F at 14:29
 Low Temperature ...  53F at 07:56
 
 High Humidity .....  79% at 08:18
 Low Humidity ......  37% at 12:59
 
 Rainfall Total ....  0.00 in.
 
 High Wind Speed ... ---
                     
 
 High Barometer ....  30.05 at 00:02
 Low Barometer .....  29.89 at 14:30
 
Dew Point    High .... 51   Low ..... 44
 
 
 Time   Temp  Humi  Rain     Baro  DewPt  Wind
00:00,  58F, 64%, 0.00 in, 30.04, 45F, ---
00:30,  58F, 66%, 0.00 in, 30.03, 46F, ---
01:00,  57F, 70%, 0.00 in, 30.04, 48F, ---
01:30,  56F, 72%, 0.00 in, 30.02, 47F, ---
02:00,  56F, 73%, 0.00 in, 30.01, 47F, ---
02:30,  56F, 73%, 0.00 in, 29.99, 47F, ---
03:00,  56F, 70%, 0.00 in, 29.98, 46F, ---
03:30,  57F, 67%, 0.00 in, 29.99, 46F, ---
04:00,  56F, 68%, 0.00 in, 29.98, 45F, ---
04:30,  56F, 70%, 0.00 in, 29.98, 46F, ---
05:00,  56F, 71%, 0.00 in, 29.99, 46F, ---
05:30,  55F, 71%, 0.00 in, 29.98, 46F, ---
06:00,  55F, 73%, 0.00 in, 29.99, 47F, ---
06:30,  55F, 74%, 0.00 in, 30.00, 47F, ---
07:00,  55F, 75%, 0.00 in, 30.00, 48F, ---
07:30,  54F, 76%, 0.00 in, 30.00, 46F, ---
08:00,  53F, 77%, 0.00 in, 30.01, 47F, ---
08:30,  54F, 79%, 0.00 in, 30.01, 47F, ---
09:00,  56F, 77%, 0.00 in, 30.02, 48F, ---
09:30,  58F, 71%, 0.00 in, 30.02, 48F, ---
10:00,  59F, 69%, 0.00 in, 30.01, 49F, ---
10:30,  65F, 57%, 0.00 in, 30.01, 49F, ---
11:00,  68F, 51%, 0.00 in, 30.01, 49F, ---
11:30,  70F, 46%, 0.00 in, 30.00, 48F, ---
12:00,  72F, 44%, 0.00 in, 29.98, 49F, ---
12:30,  72F, 42%, 0.00 in, 29.96, 47F, ---
13:00,  73F, 37%, 0.00 in, 29.94, 46F, ---
13:30,  73F, 39%, 0.00 in, 29.92, 47F, ---
14:00,  74F, 38%, 0.00 in, 29.91, 46F, ---
14:30,  75F, 39%, 0.00 in, 29.90, 49F, ---
15:00,  75F, 37%, 0.00 in, 29.90, 47F, ---
15:30,  75F, 38%, 0.00 in, 29.90, 48F, ---
16:00,  72F, 39%, 0.00 in, 29.90, 45F, ---
16:30,  71F, 39%, 0.00 in, 29.90, 45F, ---
17:00,  70F, 40%, 0.00 in, 29.90, 44F, ---
17:30,  69F, 43%, 0.00 in, 29.91, 46F, ---
18:00,  68F, 45%, 0.00 in, 29.93, 46F, ---
18:30,  68F, 47%, 0.00 in, 29.93, 47F, ---
19:00,  67F, 50%, 0.00 in, 29.94, 47F, ---
19:30,  66F, 52%, 0.00 in, 29.95, 48F, ---
20:00,  65F, 53%, 0.00 in, 29.96, 47F, ---
20:30,  65F, 56%, 0.00 in, 29.97, 48F, ---
21:00,  64F, 54%, 0.00 in, 29.99, 47F, ---
21:30,  63F, 53%, 0.00 in, 29.99, 45F, ---
22:00,  62F, 53%, 0.00 in, 30.00, 45F, ---
22:30,  62F, 53%, 0.00 in, 30.00, 45F, ---
23:00,  61F, 54%, 0.00 in, 30.01, 44F, ---
23:30,  61F, 56%, 0.00 in, 30.00, 45F, ---
23:59,  60F, 58%, 0.00 in, 29.99, 46F, ---